| time (UTC) | temp F | wind direction | speed MPH | gust MPH | rain 1hr in | rain 24hr in | rain mn in | humidity % | barometer mb |
| 20260902100633 | 66 | 98 | 7.0 | 15.0 | 0.01 | 0.57 | 0.54 | 90 | 1012.5 |
| 20260902100133 | 66 | 97 | 5.0 | 13.0 | 0.01 | 0.56 | 0.53 | 90 | 1012.9 |
| 20260902095628 | 67 | 96 | 5.0 | 12.0 | 0.02 | 0.56 | 0.53 | 90 | 1012.5 |
| 20260902095128 | 67 | 67 | 6.0 | 11.0 | 0.02 | 0.56 | 0.53 | 90 | 1013.1 |
| 20260902094626 | 67 | 92 | 5.0 | 10.0 | 0.03 | 0.56 | 0.53 | 90 | 1013.2 |
| 20260902094126 | 67 | 91 | 4.0 | 9.0 | 0.03 | 0.56 | 0.53 | 90 | 1013.1 |
| 20260902094114 | 67 | 114 | 4.0 | 9.0 | 0.03 | 0.56 | 0.53 | 90 | 1013.1 |
| 20260902093126 | 67 | 32 | 3.0 | 9.0 | 0.03 | 0.56 | 0.53 | 90 | 1012.5 |
| 20260902092848 | 67 | 101 | 2.0 | 9.0 | 0.03 | 0.56 | 0.53 | 90 | 1013.1 |
| 20260902092126 | 67 | 155 | 0.0 | 6.0 | 0.03 | 0.56 | 0.53 | 90 | 1013.8 |
| 20260902091626 | 67 | 100 | 1.0 | 3.0 | 0.03 | 0.56 | 0.53 | 90 | 1013.7 |
| 20260902091343 | 67 | 100 | 3.0 | 8.0 | 0.03 | 0.56 | 0.53 | 90 | 1014.0 |
| 20260902090626 | 67 | 101 | 3.0 | 8.0 | 0.03 | 0.56 | 0.53 | 90 | 1013.6 |
| 20260902090125 | 67 | 90 | 2.0 | 8.0 | 0.02 | 0.55 | 0.52 | 90 | 1013.4 |
| 20260902085624 | 67 | 88 | 3.0 | 8.0 | 0.01 | 0.54 | 0.51 | 90 | 1014.0 |
| 20260902085125 | 67 | 90 | 2.0 | 8.0 | 0.01 | 0.54 | 0.51 | 90 | 1013.9 |
| 20260902084622 | 67 | 96 | 2.0 | 6.0 | 0.01 | 0.53 | 0.50 | 90 | 1014.1 |
| 20260902084120 | 67 | 112 | 1.0 | 3.0 | 0.03 | 0.53 | 0.50 | 90 | 1013.8 |
| 20260902083620 | 67 | 140 | 1.0 | 3.0 | 0.08 | 0.53 | 0.50 | 90 | 1013.9 |
| 20260902083113 | 67 | 140 | 2.0 | 5.0 | 0.20 | 0.53 | 0.50 | 90 | 1014.3 |
| 20260902082608 | 67 | 140 | 2.0 | 5.0 | 0.42 | 0.53 | 0.50 | 90 | 1014.3 |
| 20260902082324 | 67 | 193 | 1.0 | 3.0 | 0.43 | 0.53 | 0.50 | 90 | 1014.3 |
| 20260902081555 | 67 | 299 | 2.0 | 5.0 | 0.43 | 0.53 | 0.50 | 90 | 1014.0 |
| 20260902081050 | 68 | 355 | 3.0 | 9.0 | 0.43 | 0.53 | 0.50 | 90 | 1013.3 |
| 20260902080543 | 68 | 332 | 2.0 | 9.0 | 0.43 | 0.53 | 0.50 | 90 | 1013.3 |
| 20260902080038 | 68 | 355 | 2.0 | 5.0 | 0.43 | 0.53 | 0.50 | 90 | 1013.4 |
| 20260902075531 | 68 | 24 | 3.0 | 10.0 | 0.43 | 0.53 | 0.50 | 90 | 1014.0 |
| 20260902075251 | 69 | 56 | 3.0 | 10.0 | 0.42 | 0.52 | 0.50 | 90 | 1014.8 |
| 20260902074520 | 69 | 111 | 3.0 | 11.0 | 0.42 | 0.52 | 0.49 | 90 | 1014.5 |
| 20260902074250 | 69 | 33 | 2.0 | 11.0 | 0.38 | 0.48 | 0.47 | 90 | 1015.4 |
| 20260902073507 | 69 | 250 | 4.0 | 13.0 | 0.33 | 0.43 | 0.41 | 90 | 1015.9 |
| 20260902073001 | 69 | 28 | 8.0 | 20.0 | 0.20 | 0.30 | 0.29 | 90 | 1015.7 |
| 20260902072455 | 69 | 274 | 5.0 | 20.0 | 0.00 | 0.10 | 0.07 | 90 | 1016.0 |
| 20260902071950 | 69 | 256 | 0.0 | 10.0 | 0.00 | 0.10 | 0.07 | 90 | 1012.3 |
| 20260902071444 | 69 | 76 | 0.0 | 0.0 | 0.00 | 0.10 | 0.07 | 90 | 1011.5 |
| 20260902070937 | 69 | 108 | 0.0 | 0.0 | 0.00 | 0.10 | 0.07 | 89 | 1011.6 |
| 20260902070432 | 69 | 155 | 0.0 | 0.0 | 0.00 | 0.10 | 0.07 | 89 | 1011.9 |
| 20260902065925 | 69 | 155 | 0.0 | 0.0 | 0.00 | 0.10 | 0.07 | 89 | 1012.0 |
| 20260902065636 | 69 | 155 | 0.0 | 0.0 | 0.00 | 0.10 | 0.07 | 89 | 1011.8 |
| 20260902064914 | 69 | 155 | 0.0 | 0.0 | 0.00 | 0.10 | 0.07 | 89 | 1011.6 |
| 20260902064407 | 69 | 155 | 0.0 | 0.0 | 0.00 | 0.10 | 0.07 | 89 | 1012.0 |
| 20260902063902 | 69 | 155 | 0.0 | 0.0 | 0.00 | 0.10 | 0.07 | 89 | 1012.1 |
| 20260902063356 | 69 | 155 | 0.0 | 0.0 | 0.00 | 0.10 | 0.07 | 89 | 1012.1 |
| 20260902062849 | 69 | 155 | 0.0 | 1.0 | 0.00 | 0.10 | 0.07 | 89 | 1012.0 |
| 20260902062609 | 69 | 190 | 0.0 | 2.0 | 0.00 | 0.10 | 0.07 | 89 | 1012.0 |
| 20260902061838 | 69 | 194 | 0.0 | 2.0 | 0.00 | 0.10 | 0.07 | 88 | 1012.0 |
| 20260902061332 | 69 | 194 | 1.0 | 3.0 | 0.03 | 0.10 | 0.07 | 88 | 1012.0 |
| 20260902060826 | 69 | 194 | 1.0 | 3.0 | 0.04 | 0.10 | 0.07 | 88 | 1011.8 |
| 20260902060320 | 69 | 194 | 0.0 | 2.0 | 0.05 | 0.10 | 0.07 | 88 | 1011.9 |
| 20260902055813 | 69 | 83 | 0.0 | 3.0 | 0.07 | 0.10 | 0.07 | 88 | 1011.7 |
| 20260902055309 | 69 | 83 | 2.0 | 7.0 | 0.07 | 0.10 | 0.07 | 88 | 1011.7 |
| 20260902054801 | 69 | 83 | 3.0 | 7.0 | 0.08 | 0.10 | 0.07 | 88 | 1011.7 |
| 20260902054256 | 69 | 107 | 1.0 | 4.0 | 0.09 | 0.10 | 0.07 | 88 | 1011.8 |
| 20260902053750 | 69 | 23 | 2.0 | 6.0 | 0.10 | 0.10 | 0.07 | 87 | 1012.0 |
| 20260902053243 | 69 | 74 | 2.0 | 6.0 | 0.10 | 0.10 | 0.07 | 87 | 1012.4 |
| 20260902052738 | 70 | 90 | 1.0 | 4.0 | 0.10 | 0.10 | 0.07 | 87 | 1012.9 |
| 20260902052232 | 70 | 157 | 0.0 | 2.0 | 0.10 | 0.10 | 0.07 | 87 | 1013.3 |
| 20260902051726 | 70 | 252 | 0.0 | 0.0 | 0.10 | 0.10 | 0.07 | 87 | 1013.4 |
| 20260902051219 | 70 | 252 | 0.0 | 2.0 | 0.07 | 0.07 | 0.04 | 87 | 1013.7 |
| 20260902050713 | 70 | 263 | 1.0 | 2.0 | 0.05 | 0.05 | 0.03 | 87 | 1013.6 |
| 20260902050207 | 70 | 263 | 1.0 | 3.0 | 0.04 | 0.04 | 0.02 | 87 | 1013.2 |
| 20260902045701 | 71 | 263 | 1.0 | 3.0 | 0.03 | 0.03 | 0.03 | 87 | 1013.1 |
| 20260902045156 | 71 | 263 | 1.0 | 3.0 | 0.02 | 0.02 | 0.02 | 87 | 1012.9 |
| 20260902044650 | 71 | 263 | 1.0 | 3.0 | 0.02 | 0.02 | 0.02 | 87 | 1013.0 |
| 20260902044145 | 71 | 262 | 2.0 | 7.0 | 0.01 | 0.01 | 0.01 | 87 | 1013.0 |
| 20260902043642 | 71 | 261 | 3.0 | 7.0 | 0.00 | 0.00 | 0.00 | 87 | 1013.1 |
| 20260902043127 | 71 | 79 | 2.0 | 5.0 | 0.00 | 0.00 | 0.00 | 87 | 1013.0 |
| 20260902042622 | 71 | 72 | 2.0 | 8.0 | 0.00 | 0.00 | 0.00 | 86 | 1013.3 |
| 20260902042115 | 71 | 287 | 3.0 | 10.0 | 0.00 | 0.00 | 0.00 | 86 | 1013.6 |
| 20260902041829 | 71 | 225 | 2.0 | 10.0 | 0.00 | 0.00 | 0.00 | 85 | 1013.8 |
| 20260902041104 | 71 | 187 | 0.0 | 0.0 | 0.00 | 0.00 | 0.00 | 84 | 1013.1 |
| 20260902040558 | 71 | 63 | 0.0 | 0.0 | 0.00 | 0.00 | 0.00 | 84 | 1012.8 |
| 20260902040052 | 71 | 60 | 0.0 | 0.0 | 0.00 | 0.00 | 0.00 | 84 | 1012.4 |
| 20260902035546 | 72 | 60 | 0.0 | 0.0 | 0.00 | 0.00 | 0.00 | 84 | 1012.6 |
| 20260902035040 | 72 | 60 | 0.0 | 0.0 | 0.00 | 0.00 | 0.00 | 83 | 1012.9 |
| 20260902034534 | 72 | 60 | 0.0 | 0.0 | 0.00 | 0.00 | 0.00 | 83 | 1013.1 |
| 20260902034027 | 72 | 60 | 0.0 | 0.0 | 0.00 | 0.00 | 0.00 | 83 | 1012.9 |
| 20260902033523 | 72 | 60 | 0.0 | 0.0 | 0.00 | 0.00 | 0.00 | 83 | 1013.0 |
| 20260902033015 | 72 | 60 | 0.0 | 0.0 | 0.00 | 0.00 | 0.00 | 83 | 1013.1 |
| 20260902032510 | 73 | 60 | 0.0 | 0.0 | 0.00 | 0.00 | 0.00 | 83 | 1012.9 |
| 20260902032004 | 73 | 60 | 0.0 | 0.0 | 0.00 | 0.00 | 0.00 | 83 | 1012.9 |
| 20260902031457 | 73 | 60 | 0.0 | 0.0 | 0.00 | 0.00 | 0.00 | 83 | 1012.7 |
| 20260902031213 | 73 | 60 | 0.0 | 0.0 | 0.00 | 0.00 | 0.00 | 83 | 1012.7 |
| 20260902030711 | 73 | 164 | 0.0 | 0.0 | 0.00 | 0.00 | 0.00 | 83 | 1012.9 |
| 20260902025940 | 73 | 164 | 0.0 | 0.0 | 0.00 | 0.00 | 0.00 | 83 | 1012.9 |
| 20260902025433 | 73 | 164 | 0.0 | 0.0 | 0.00 | 0.00 | 0.00 | 83 | 1012.9 |
| 20260902024928 | 74 | 164 | 0.0 | 0.0 | 0.00 | 0.00 | 0.00 | 83 | 1012.9 |
| 20260902024422 | 74 | 164 | 0.0 | 0.0 | 0.00 | 0.00 | 0.00 | 83 | 1013.0 |
| 20260902024134 | 74 | 164 | 0.0 | 0.0 | 0.00 | 0.00 | 0.00 | 83 | 1013.0 |
| 20260902023411 | 74 | 164 | 0.0 | 0.0 | 0.00 | 0.00 | 0.00 | 83 | 1013.1 |
| 20260902022904 | 74 | 164 | 0.0 | 0.0 | 0.00 | 0.00 | 0.00 | 82 | 1013.0 |
| 20260902022358 | 74 | 164 | 0.0 | 0.0 | 0.00 | 0.00 | 0.00 | 82 | 1013.0 |
| 20260902021852 | 74 | 77 | 0.0 | 0.0 | 0.00 | 0.00 | 0.00 | 82 | 1012.9 |
| 20260902021346 | 74 | 77 | 0.0 | 0.0 | 0.00 | 0.00 | 0.00 | 82 | 1012.9 |
| 20260902020841 | 74 | 66 | 0.0 | 0.0 | 0.00 | 0.00 | 0.00 | 81 | 1013.0 |
| 20260902020340 | 74 | 66 | 0.0 | 0.0 | 0.00 | 0.00 | 0.00 | 81 | 1013.1 |
| 20260902015838 | 75 | 66 | 0.0 | 0.0 | 0.00 | 0.00 | 0.00 | 81 | 1013.0 |
| 20260902015337 | 75 | 66 | 0.0 | 0.0 | 0.00 | 0.00 | 0.00 | 81 | 1013.1 |
| 20260902015317 | 75 | 66 | 0.0 | 0.0 | 0.00 | 0.00 | 0.00 | 80 | 1013.1 |
| 20260902014334 | 75 | 66 | 0.0 | 0.0 | 0.00 | 0.00 | 0.00 | 81 | 1012.8 |
| 20260902013834 | 75 | 160 | 0.0 | 0.0 | 0.00 | 0.00 | 0.00 | 81 | 1013.0 |
| 20260902013334 | 76 | 161 | 0.0 | 0.0 | 0.00 | 0.00 | 0.00 | 80 | 1012.9 |
| 20260902012834 | 76 | 161 | 0.0 | 0.0 | 0.00 | 0.00 | 0.00 | 80 | 1012.9 |
| 20260902012332 | 76 | 161 | 0.0 | 0.0 | 0.00 | 0.00 | 0.00 | 80 | 1012.9 |
| 20260902012050 | 76 | 161 | 0.0 | 0.0 | 0.00 | 0.00 | 0.00 | 80 | 1012.8 |
| 20260902011328 | 76 | 161 | 0.0 | 0.0 | 0.00 | 0.00 | 0.00 | 81 | 1012.7 |
| 20260902011053 | 77 | 161 | 0.0 | 0.0 | 0.00 | 0.00 | 0.00 | 81 | 1012.6 |
| 20260902010323 | 77 | 161 | 0.0 | 0.0 | 0.00 | 0.00 | 0.00 | 81 | 1012.5 |
| 20260902005821 | 77 | 161 | 0.0 | 0.0 | 0.00 | 0.00 | 0.00 | 81 | 1012.4 |
| 20260902005320 | 77 | 161 | 0.0 | 0.0 | 0.00 | 0.00 | 0.00 | 81 | 1012.5 |
| 20260902004818 | 77 | 80 | 0.0 | 0.0 | 0.00 | 0.00 | 0.00 | 81 | 1012.4 |
| 20260902004806 | 78 | 80 | 0.0 | 0.0 | 0.00 | 0.00 | 0.00 | 81 | 1012.4 |
| 20260902003814 | 78 | 80 | 0.0 | 0.0 | 0.00 | 0.00 | 0.00 | 81 | 1012.5 |
| 20260902003313 | 78 | 80 | 0.0 | 0.0 | 0.00 | 0.00 | 0.00 | 80 | 1012.5 |
| 20260902003038 | 78 | 80 | 0.0 | 0.0 | 0.00 | 0.00 | 0.00 | 80 | 1012.4 |
| 20260902002530 | 78 | 80 | 0.0 | 0.0 | 0.00 | 0.00 | 0.00 | 81 | 1012.5 |
| 20260902001806 | 78 | 80 | 0.0 | 0.0 | 0.00 | 0.00 | 0.00 | 81 | 1012.5 |
| 20260902001259 | 79 | 80 | 0.0 | 0.0 | 0.00 | 0.00 | 0.00 | 81 | 1012.4 |
| 20260902000755 | 79 | 80 | 0.0 | 0.0 | 0.00 | 0.00 | 0.00 | 81 | 1012.4 |
| 20260902000249 | 79 | 80 | 0.0 | 0.0 | 0.00 | 0.00 | 0.00 | 81 | 1012.4 |
| 20260901235741 | 79 | 80 | 0.0 | 0.0 | 0.00 | 0.00 | 0.00 | 81 | 1012.3 |
| 20260901235235 | 79 | 80 | 0.0 | 0.0 | 0.00 | 0.00 | 0.00 | 80 | 1012.4 |
| 20260901234730 | 80 | 80 | 0.0 | 0.0 | 0.00 | 0.00 | 0.00 | 80 | 1012.4 |
| 20260901234446 | 80 | 80 | 0.0 | 0.0 | 0.00 | 0.00 | 0.00 | 79 | 1012.4 |
| 20260901233718 | 80 | 80 | 0.0 | 0.0 | 0.00 | 0.00 | 0.00 | 79 | 1012.2 |
| 20260901233212 | 80 | 80 | 0.0 | 0.0 | 0.00 | 0.00 | 0.00 | 79 | 1012.1 |
| 20260901232712 | 80 | 80 | 1.0 | 5.0 | 0.00 | 0.00 | 0.00 | 79 | 1012.0 |
| 20260901232210 | 80 | 80 | 1.0 | 5.0 | 0.00 | 0.00 | 0.00 | 78 | 1011.9 |
| 20260901231708 | 81 | 82 | 0.0 | 4.0 | 0.00 | 0.00 | 0.00 | 78 | 1012.0 |
| 20260901231206 | 81 | 192 | 0.0 | 0.0 | 0.00 | 0.00 | 0.00 | 79 | 1012.2 |
| 20260901230921 | 82 | 193 | 0.0 | 0.0 | 0.00 | 0.00 | 0.00 | 78 | 1012.5 |
| 20260901230201 | 82 | 250 | 0.0 | 0.0 | 0.00 | 0.00 | 0.00 | 78 | 1012.6 |
| 20260901225700 | 82 | 250 | 0.0 | 0.0 | 0.00 | 0.00 | 0.00 | 77 | 1012.7 |
| 20260901225158 | 82 | 250 | 0.0 | 0.0 | 0.00 | 0.00 | 0.00 | 77 | 1013.0 |
| 20260901224915 | 82 | 250 | 0.0 | 0.0 | 0.00 | 0.00 | 0.00 | 77 | 1013.2 |
| 20260901224156 | 82 | 250 | 0.0 | 0.0 | 0.00 | 0.00 | 0.00 | 76 | 1013.1 |
| 20260901223656 | 82 | 250 | 0.0 | 0.0 | 0.00 | 0.00 | 0.00 | 74 | 1013.0 |
| 20260901223155 | 82 | 250 | 0.0 | 0.0 | 0.00 | 0.00 | 0.00 | 73 | 1012.9 |
| 20260901222656 | 83 | 32 | 0.0 | 0.0 | 0.00 | 0.00 | 0.00 | 71 | 1012.8 |
| 20260901222156 | 83 | 32 | 0.0 | 0.0 | 0.00 | 0.00 | 0.00 | 69 | 1012.4 |
| 20260901221656 | 83 | 32 | 0.0 | 0.0 | 0.00 | 0.00 | 0.00 | 69 | 1012.1 |
| 20260901221410 | 83 | 32 | 0.0 | 0.0 | 0.00 | 0.00 | 0.00 | 71 | 1012.0 |
| 20260901220651 | 84 | 32 | 0.0 | 0.0 | 0.00 | 0.00 | 0.00 | 70 | 1012.2 |
| 20260901220151 | 84 | 32 | 0.0 | 0.0 | 0.00 | 0.00 | 0.00 | 69 | 1012.2 |
| 20260901215912 | 84 | 32 | 0.0 | 0.0 | 0.00 | 0.00 | 0.00 | 69 | 1012.4 |
| 20260901215152 | 84 | 32 | 0.0 | 0.0 | 0.00 | 0.00 | 0.00 | 68 | 1012.3 |
| 20260901214912 | 85 | 32 | 0.0 | 0.0 | 0.00 | 0.00 | 0.00 | 67 | 1012.2 |
| 20260901214153 | 85 | 32 | 0.0 | 0.0 | 0.00 | 0.00 | 0.00 | 66 | 1012.2 |
| 20260901213652 | 85 | 32 | 0.0 | 0.0 | 0.00 | 0.00 | 0.00 | 65 | 1012.2 |
| 20260901213152 | 85 | 32 | 0.0 | 0.0 | 0.00 | 0.00 | 0.00 | 65 | 1012.0 |
| 20260901212651 | 85 | 32 | 0.0 | 0.0 | 0.00 | 0.00 | 0.00 | 66 | 1011.6 |
| 20260901212416 | 85 | 32 | 0.0 | 0.0 | 0.00 | 0.00 | 0.00 | 65 | 1011.8 |
| 20260901211916 | 85 | 32 | 0.0 | 0.0 | 0.00 | 0.00 | 0.00 | 62 | 1012.2 |
| 20260901211152 | 85 | 32 | 0.0 | 0.0 | 0.00 | 0.00 | 0.00 | 61 | 1012.2 |
| 20260901210651 | 85 | 32 | 0.0 | 0.0 | 0.00 | 0.00 | 0.00 | 63 | 1012.4 |
| 20260901210413 | 85 | 32 | 0.0 | 0.0 | 0.00 | 0.00 | 0.00 | 60 | 1012.6 |
| 20260901205917 | 85 | 32 | 0.0 | 0.0 | 0.00 | 0.00 | 0.00 | 58 | 1012.7 |
| 20260901205151 | 86 | 32 | 0.0 | 0.0 | 0.00 | 0.00 | 0.00 | 53 | 1012.7 |
| 20260901204651 | 87 | 32 | 0.0 | 0.0 | 0.00 | 0.00 | 0.00 | 48 | 1012.8 |
| 20260901204145 | 87 | 12 | 0.0 | 0.0 | 0.00 | 0.00 | 0.00 | 53 | 1012.9 |
| 20260901203907 | 86 | 273 | 0.0 | 0.0 | 0.00 | 0.00 | 0.00 | 64 | 1012.8 |
| 20260901203143 | 85 | 295 | 0.0 | 0.0 | 0.00 | 0.00 | 0.00 | 66 | 1012.8 |
| 20260901202643 | 84 | 296 | 0.0 | 0.0 | 0.00 | 0.00 | 0.00 | 65 | 1012.9 |
| 20260901202144 | 84 | 296 | 0.0 | 0.0 | 0.00 | 0.00 | 0.00 | 65 | 1012.8 |
| 20260901201641 | 84 | 296 | 0.0 | 0.0 | 0.00 | 0.00 | 0.00 | 69 | 1012.9 |
| 20260901201146 | 84 | 296 | 0.0 | 0.0 | 0.00 | 0.00 | 0.00 | 64 | 1012.9 |
| 20260901200640 | 84 | 296 | 0.0 | 0.0 | 0.00 | 0.00 | 0.00 | 64 | 1012.9 |
| 20260901200359 | 84 | 296 | 0.0 | 0.0 | 0.00 | 0.00 | 0.00 | 70 | 1012.9 |
| 20260901195638 | 84 | 296 | 0.0 | 0.0 | 0.00 | 0.00 | 0.00 | 68 | 1013.1 |
| 20260901195136 | 84 | 296 | 0.0 | 0.0 | 0.00 | 0.00 | 0.00 | 66 | 1013.3 |
| 20260901194904 | 84 | 296 | 0.0 | 0.0 | 0.00 | 0.00 | 0.00 | 64 | 1013.2 |
| 20260901194131 | 84 | 296 | 0.0 | 0.0 | 0.00 | 0.00 | 0.00 | 65 | 1013.1 |
| 20260901193629 | 84 | 296 | 0.0 | 0.0 | 0.00 | 0.00 | 0.00 | 65 | 1013.1 |
| 20260901193127 | 84 | 296 | 0.0 | 0.0 | 0.00 | 0.00 | 0.00 | 61 | 1013.3 |
| 20260901192625 | 85 | 296 | 0.0 | 0.0 | 0.00 | 0.00 | 0.00 | 62 | 1013.2 |
| 20260901192123 | 85 | 296 | 0.0 | 0.0 | 0.00 | 0.00 | 0.00 | 60 | 1013.4 |
| 20260901191621 | 85 | 296 | 0.0 | 0.0 | 0.00 | 0.00 | 0.00 | 64 | 1013.4 |
| 20260901191119 | 86 | 298 | 0.0 | 0.0 | 0.00 | 0.00 | 0.00 | 62 | 1013.4 |
| 20260901190617 | 87 | 304 | 0.0 | 0.0 | 0.00 | 0.00 | 0.00 | 57 | 1013.4 |
| 20260901190335 | 88 | 225 | 0.0 | 0.0 | 0.00 | 0.00 | 0.00 | 62 | 1013.4 |
| 20260901185613 | 87 | 235 | 0.0 | 0.0 | 0.00 | 0.00 | 0.00 | 63 | 1013.5 |
| 20260901185331 | 86 | 332 | 0.0 | 0.0 | 0.00 | 0.00 | 0.00 | 62 | 1013.5 |
| 20260901184607 | 87 | 333 | 0.0 | 0.0 | 0.00 | 0.00 | 0.00 | 61 | 1013.6 |
| 20260901184101 | 86 | 330 | 0.0 | 0.0 | 0.00 | 0.00 | 0.00 | 66 | 1013.6 |
| 20260901183554 | 86 | 270 | 0.0 | 0.0 | 0.00 | 0.00 | 0.00 | 68 | 1013.7 |
| 20260901183049 | 85 | 278 | 0.0 | 0.0 | 0.00 | 0.00 | 0.00 | 67 | 1013.6 |
| 20260901182801 | 86 | 238 | 0.0 | 0.0 | 0.00 | 0.00 | 0.00 | 63 | 1013.6 |
| 20260901182522 | 86 | 231 | 0.0 | 0.0 | 0.00 | 0.00 | 0.00 | 63 | 1013.6 |
| 20260901181531 | 87 | 291 | 0.0 | 0.0 | 0.00 | 0.00 | 0.00 | 66 | 1013.5 |
| 20260901181024 | 86 | 293 | 0.0 | 0.0 | 0.00 | 0.00 | 0.00 | 69 | 1013.6 |
| 20260901180519 | 87 | 297 | 0.0 | 0.0 | 0.00 | 0.00 | 0.00 | 66 | 1013.6 |
| 20260901180013 | 89 | 296 | 0.0 | 3.0 | 0.00 | 0.00 | 0.00 | 64 | 1013.7 |
| 20260901175509 | 91 | 296 | 1.0 | 5.0 | 0.00 | 0.00 | 0.00 | 61 | 1013.7 |
| 20260901175001 | 92 | 5 | 1.0 | 5.0 | 0.00 | 0.00 | 0.00 | 63 | 1013.7 |
| 20260901174455 | 91 | 342 | 1.0 | 4.0 | 0.00 | 0.00 | 0.00 | 63 | 1013.7 |
| 20260901173948 | 91 | 281 | 1.0 | 4.0 | 0.00 | 0.00 | 0.00 | 62 | 1013.7 |
| 20260901173443 | 90 | 74 | 1.0 | 4.0 | 0.00 | 0.00 | 0.00 | 62 | 1013.7 |
| 20260901172937 | 90 | 248 | 1.0 | 4.0 | 0.00 | 0.00 | 0.00 | 61 | 1013.9 |
| 20260901172647 | 90 | 177 | 2.0 | 6.0 | 0.00 | 0.00 | 0.00 | 63 | 1014.0 |
| 20260901171924 | 89 | 217 | 1.0 | 6.0 | 0.00 | 0.00 | 0.00 | 63 | 1014.0 |
| 20260901171420 | 89 | 165 | 1.0 | 4.0 | 0.00 | 0.00 | 0.00 | 66 | 1014.0 |
| 20260901170912 | 88 | 235 | 3.0 | 6.0 | 0.00 | 0.00 | 0.00 | 69 | 1014.1 |
| 20260901170407 | 88 | 221 | 3.0 | 6.0 | 0.00 | 0.00 | 0.00 | 70 | 1014.1 |
| 20260901165901 | 87 | 226 | 2.0 | 6.0 | 0.00 | 0.00 | 0.00 | 70 | 1014.0 |
| 20260901165354 | 87 | 265 | 1.0 | 4.0 | 0.00 | 0.00 | 0.00 | 72 | 1014.0 |
| 20260901164849 | 86 | 237 | 2.0 | 4.0 | 0.00 | 0.00 | 0.00 | 72 | 1013.9 |
| 20260901164342 | 86 | 242 | 2.0 | 4.0 | 0.00 | 0.00 | 0.00 | 73 | 1014.0 |
| 20260901163837 | 85 | 231 | 1.0 | 4.0 | 0.00 | 0.00 | 0.00 | 73 | 1013.9 |
| 20260901163331 | 84 | 251 | 0.0 | 4.0 | 0.00 | 0.00 | 0.00 | 75 | 1013.9 |
| 20260901163047 | 84 | 234 | 0.0 | 0.0 | 0.00 | 0.00 | 0.00 | 77 | 1013.9 |
| 20260901162319 | 83 | 205 | 0.0 | 0.0 | 0.00 | 0.00 | 0.00 | 76 | 1013.9 |
| 20260901161812 | 82 | 301 | 0.0 | 0.0 | 0.00 | 0.00 | 0.00 | 80 | 1013.9 |
| 20260901161306 | 81 | 304 | 0.0 | 0.0 | 0.00 | 0.00 | 0.00 | 80 | 1014.0 |
| 20260901160801 | 81 | 295 | 0.0 | 0.0 | 0.00 | 0.00 | 0.00 | 79 | 1014.0 |
| 20260901160254 | 81 | 315 | 0.0 | 0.0 | 0.00 | 0.00 | 0.00 | 78 | 1013.9 |
| 20260901155749 | 80 | 218 | 0.0 | 0.0 | 0.00 | 0.00 | 0.00 | 78 | 1014.1 |
| 20260901155243 | 80 | 218 | 0.0 | 0.0 | 0.00 | 0.00 | 0.00 | 77 | 1013.9 |
| 20260901155002 | 79 | 187 | 0.0 | 2.0 | 0.00 | 0.00 | 0.00 | 82 | 1013.9 |
| 20260901154230 | 78 | 180 | 1.0 | 3.0 | 0.00 | 0.00 | 0.00 | 81 | 1013.9 |
| 20260901153951 | 77 | 180 | 0.0 | 3.0 | 0.00 | 0.00 | 0.00 | 85 | 1014.0 |
| 20260901153218 | 76 | 192 | 0.0 | 0.0 | 0.00 | 0.00 | 0.00 | 88 | 1014.0 |
| 20260901152713 | 76 | 192 | 0.0 | 0.0 | 0.00 | 0.00 | 0.00 | 89 | 1014.1 |
| 20260901152207 | 75 | 192 | 0.0 | 0.0 | 0.00 | 0.00 | 0.00 | 90 | 1014.1 |
| 20260901151702 | 75 | 192 | 0.0 | 0.0 | 0.00 | 0.00 | 0.00 | 90 | 1014.0 |
| 20260901151155 | 75 | 192 | 0.0 | 0.0 | 0.00 | 0.00 | 0.00 | 91 | 1014.1 |
| 20260901150911 | 74 | 187 | 0.0 | 0.0 | 0.00 | 0.00 | 0.00 | 91 | 1014.1 |
| 20260901150151 | 74 | 187 | 0.0 | 0.0 | 0.00 | 0.00 | 0.00 | 91 | 1014.1 |
| 20260901145651 | 73 | 257 | 0.0 | 0.0 | 0.00 | 0.00 | 0.00 | 91 | 1014.2 |
| 20260901145151 | 74 | 257 | 0.0 | 0.0 | 0.00 | 0.00 | 0.00 | 91 | 1014.3 |
| 20260901144651 | 73 | 257 | 0.0 | 0.0 | 0.00 | 0.00 | 0.00 | 91 | 1014.2 |
| 20260901144411 | 73 | 257 | 0.0 | 0.0 | 0.00 | 0.00 | 0.00 | 91 | 1014.2 |
| 20260901143647 | 73 | 257 | 0.0 | 0.0 | 0.00 | 0.00 | 0.00 | 91 | 1014.3 |
| 20260901143144 | 73 | 257 | 0.0 | 0.0 | 0.00 | 0.00 | 0.00 | 91 | 1014.3 |
| 20260901142644 | 73 | 257 | 0.0 | 0.0 | 0.00 | 0.00 | 0.00 | 91 | 1014.2 |
| 20260901142144 | 73 | 257 | 0.0 | 0.0 | 0.00 | 0.00 | 0.00 | 91 | 1014.3 |
| 20260901141644 | 73 | 257 | 0.0 | 0.0 | 0.00 | 0.00 | 0.00 | 91 | 1014.2 |
| 20260901141144 | 73 | 257 | 0.0 | 0.0 | 0.00 | 0.00 | 0.00 | 91 | 1014.3 |
| 20260901140642 | 73 | 257 | 0.0 | 0.0 | 0.00 | 0.00 | 0.00 | 91 | 1014.3 |
| 20260901140140 | 73 | 257 | 0.0 | 0.0 | 0.00 | 0.00 | 0.00 | 91 | 1014.1 |
| 20260901135640 | 73 | 257 | 0.0 | 0.0 | 0.00 | 0.00 | 0.00 | 91 | 1014.1 |
| 20260901135140 | 73 | 257 | 0.0 | 0.0 | 0.00 | 0.00 | 0.00 | 91 | 1014.2 |
| 20260901134638 | 73 | 257 | 0.0 | 0.0 | 0.00 | 0.00 | 0.00 | 91 | 1014.1 |
| 20260901134138 | 73 | 257 | 0.0 | 0.0 | 0.00 | 0.00 | 0.00 | 91 | 1014.3 |
| 20260901133851 | 73 | 257 | 0.0 | 0.0 | 0.00 | 0.00 | 0.00 | 91 | 1014.2 |
| 20260901133135 | 73 | 257 | 0.0 | 0.0 | 0.00 | 0.00 | 0.00 | 91 | 1014.1 |
| 20260901132634 | 72 | 257 | 0.0 | 0.0 | 0.00 | 0.00 | 0.00 | 91 | 1014.2 |
| 20260901132134 | 72 | 257 | 0.0 | 0.0 | 0.00 | 0.00 | 0.00 | 91 | 1014.1 |
| 20260901131634 | 72 | 257 | 0.0 | 0.0 | 0.00 | 0.00 | 0.00 | 91 | 1014.1 |
| 20260901131134 | 72 | 257 | 0.0 | 0.0 | 0.00 | 0.00 | 0.00 | 91 | 1014.0 |
| 20260901130634 | 72 | 257 | 0.0 | 0.0 | 0.00 | 0.00 | 0.00 | 91 | 1014.1 |
| 20260901130135 | 72 | 257 | 0.0 | 0.0 | 0.00 | 0.00 | 0.00 | 91 | 1014.1 |
| 20260901125855 | 72 | 257 | 0.0 | 0.0 | 0.00 | 0.00 | 0.00 | 91 | 1014.2 |
| 20260901125131 | 72 | 257 | 0.0 | 0.0 | 0.00 | 0.00 | 0.00 | 91 | 1014.1 |
| 20260901124631 | 72 | 257 | 0.0 | 0.0 | 0.00 | 0.00 | 0.00 | 91 | 1014.2 |
| 20260901124130 | 72 | 257 | 0.0 | 0.0 | 0.00 | 0.00 | 0.00 | 91 | 1014.1 |
| 20260901123630 | 72 | 257 | 0.0 | 0.0 | 0.00 | 0.00 | 0.00 | 91 | 1014.1 |
| 20260901123349 | 72 | 257 | 0.0 | 0.0 | 0.00 | 0.00 | 0.00 | 90 | 1014.1 |
| 20260901122630 | 72 | 257 | 0.0 | 0.0 | 0.00 | 0.00 | 0.00 | 90 | 1014.0 |
| 20260901122610 | 72 | 257 | 0.0 | 0.0 | 0.00 | 0.00 | 0.00 | 90 | 1014.1 |
| 20260901121630 | 72 | 257 | 0.0 | 0.0 | 0.00 | 0.00 | 0.00 | 90 | 1014.0 |
| 20260901121130 | 72 | 257 | 0.0 | 0.0 | 0.00 | 0.00 | 0.00 | 90 | 1013.9 |
| 20260901120626 | 72 | 257 | 0.0 | 0.0 | 0.00 | 0.00 | 0.00 | 90 | 1013.8 |
| 20260901120126 | 72 | 257 | 0.0 | 0.0 | 0.00 | 0.00 | 0.00 | 90 | 1013.7 |
| 20260901115623 | 72 | 257 | 0.0 | 0.0 | 0.00 | 0.00 | 0.00 | 90 | 1013.7 |
| 20260901115122 | 72 | 257 | 0.0 | 0.0 | 0.00 | 0.00 | 0.00 | 90 | 1013.6 |
| 20260901114620 | 72 | 257 | 0.0 | 0.0 | 0.00 | 0.00 | 0.00 | 90 | 1013.6 |
| 20260901114340 | 72 | 257 | 0.0 | 0.0 | 0.00 | 0.00 | 0.00 | 90 | 1013.6 |
| 20260901113618 | 72 | 257 | 0.0 | 0.0 | 0.00 | 0.00 | 0.00 | 90 | 1013.6 |
| 20260901113118 | 72 | 257 | 0.0 | 0.0 | 0.00 | 0.00 | 0.00 | 90 | 1013.6 |
| 20260901112616 | 72 | 257 | 0.0 | 0.0 | 0.00 | 0.00 | 0.00 | 90 | 1013.5 |
| 20260901112115 | 72 | 257 | 0.0 | 0.0 | 0.00 | 0.00 | 0.00 | 90 | 1013.5 |
| 20260901111614 | 72 | 257 | 0.0 | 0.0 | 0.00 | 0.00 | 0.00 | 90 | 1013.4 |
| 20260901111115 | 73 | 257 | 0.0 | 0.0 | 0.00 | 0.00 | 0.00 | 90 | 1013.4 |
| 20260901110613 | 73 | 257 | 0.0 | 0.0 | 0.00 | 0.00 | 0.00 | 90 | 1013.5 |
| 20260901110114 | 73 | 257 | 0.0 | 0.0 | 0.00 | 0.00 | 0.00 | 90 | 1013.3 |
| 20260901105612 | 73 | 257 | 0.0 | 0.0 | 0.00 | 0.00 | 0.00 | 91 | 1013.4 |
| 20260901105110 | 73 | 257 | 0.0 | 0.0 | 0.00 | 0.00 | 0.00 | 91 | 1013.4 |
| 20260901104610 | 73 | 257 | 0.0 | 0.0 | 0.00 | 0.00 | 0.00 | 91 | 1013.4 |
| 20260901104110 | 73 | 257 | 0.0 | 0.0 | 0.00 | 0.00 | 0.00 | 91 | 1013.4 |
| 20260901103608 | 73 | 257 | 0.0 | 0.0 | 0.00 | 0.00 | 0.00 | 90 | 1013.2 |
| 20260901103102 | 73 | 257 | 0.0 | 0.0 | 0.00 | 0.00 | 0.00 | 90 | 1013.2 |
| 20260901102555 | 72 | 257 | 0.0 | 0.0 | 0.00 | 0.00 | 0.00 | 90 | 1013.0 |
| 20260901102050 | 72 | 257 | 0.0 | 0.0 | 0.00 | 0.00 | 0.00 | 90 | 1013.1 |
| 20260901101544 | 72 | 257 | 0.0 | 0.0 | 0.00 | 0.00 | 0.00 | 90 | 1012.9 |